createdAt,value
2023-01-23T00:04:33.112Z,277.50
2023-01-23T00:09:35.382Z,219.40
2023-01-23T00:14:30.739Z,185.50
2023-01-23T00:19:28.769Z,201.80
2023-01-23T00:24:29.055Z,250.90
2023-01-23T00:29:29.335Z,219.10
2023-01-23T00:34:27.551Z,186.20
2023-01-23T00:39:26.997Z,159.80
2023-01-23T00:44:27.029Z,136.00
2023-01-23T00:49:27.208Z,125.30
2023-01-23T00:54:25.269Z,110.20
2023-01-23T00:59:23.968Z,107.60
2023-01-23T01:04:22.991Z,96.60
2023-01-23T01:09:21.236Z,92.90
2023-01-23T01:14:21.585Z,84.40
2023-01-23T01:19:22.022Z,79.30
2023-01-23T01:24:19.963Z,72.10
2023-01-23T01:29:19.106Z,69.70
2023-01-23T01:34:18.469Z,62.40
2023-01-23T01:39:18.597Z,58.90
2023-01-23T01:44:16.948Z,56.90
2023-01-23T01:49:16.089Z,52.70
2023-01-23T01:54:17.434Z,49.80
2023-01-23T01:59:14.761Z,46.00
2023-01-23T02:04:13.730Z,42.50
2023-01-23T02:09:12.946Z,38.40
2023-01-23T02:14:12.254Z,38.10
2023-01-23T02:19:11.500Z,35.00
2023-01-23T02:24:10.665Z,32.60
2023-01-23T02:29:09.801Z,30.80
2023-01-23T02:34:08.021Z,30.50
2023-01-23T02:39:08.174Z,28.10
2023-01-23T02:44:08.380Z,27.50
2023-01-23T02:49:06.635Z,25.20
2023-01-23T02:54:05.727Z,25.70
2023-01-23T02:59:05.072Z,22.50
2023-01-23T03:04:04.477Z,21.30
2023-01-23T03:09:04.687Z,20.70
2023-01-23T03:14:02.868Z,20.50
2023-01-23T03:19:02.017Z,19.10
2023-01-23T03:24:01.183Z,18.90
2023-01-23T03:29:02.391Z,16.50
2023-01-23T03:34:00.934Z,15.40
2023-01-23T03:38:59.025Z,14.40
2023-01-23T03:43:58.994Z,13.60
2023-01-23T03:48:56.147Z,13.00
2023-01-23T03:53:56.334Z,12.00
2023-01-23T03:58:55.706Z,11.50
2023-01-23T04:03:54.815Z,10.70
2023-01-23T04:08:52.970Z,10.70
2023-01-23T04:13:53.252Z,10.70
2023-01-23T04:18:52.395Z,9.80
2023-01-23T04:23:51.511Z,9.30
2023-01-23T04:28:50.710Z,8.60
2023-01-23T04:33:49.939Z,8.30
2023-01-23T04:38:49.149Z,7.90
2023-01-23T04:43:48.296Z,7.90
2023-01-23T04:48:48.826Z,7.10
2023-01-23T04:53:46.685Z,7.10
2023-01-23T04:58:46.092Z,6.60
2023-01-23T05:03:45.199Z,6.80
2023-01-23T05:08:44.384Z,6.40
2023-01-23T05:13:43.511Z,5.90
2023-01-23T05:18:42.889Z,5.90
2023-01-23T05:23:42.043Z,4.90
2023-01-23T05:28:41.183Z,5.40
2023-01-23T05:33:39.333Z,5.90
2023-01-23T05:38:39.669Z,4.90
2023-01-23T05:43:39.890Z,4.60
2023-01-23T05:48:38.234Z,4.90
2023-01-23T05:53:37.388Z,4.60
2023-01-23T05:58:36.732Z,4.60
2023-01-23T06:03:36.046Z,4.10
2023-01-23T06:08:37.189Z,3.70
2023-01-23T06:13:34.710Z,5.50
2023-01-23T06:18:32.941Z,4.20
2023-01-23T06:23:33.101Z,3.60
2023-01-23T06:28:32.249Z,3.90
2023-01-23T06:33:30.375Z,3.10
2023-01-23T06:38:30.712Z,3.00
2023-01-23T06:43:30.895Z,3.40
2023-01-23T06:48:29.008Z,3.20
2023-01-23T06:53:29.336Z,3.00
2023-01-23T06:58:28.513Z,3.30
2023-01-23T07:03:28.310Z,2.50
2023-01-23T07:08:25.826Z,3.10
2023-01-23T07:13:25.229Z,3.30
2023-01-23T07:18:23.372Z,3.00
2023-01-23T07:23:23.746Z,2.80
2023-01-23T07:28:22.941Z,3.10
2023-01-23T07:33:22.123Z,2.70
2023-01-23T07:38:22.238Z,2.90
2023-01-23T07:43:21.615Z,3.30
2023-01-23T07:48:19.744Z,2.90
2023-01-23T07:53:19.369Z,2.30
2023-01-23T07:58:19.306Z,2.60
2023-01-23T08:03:18.614Z,2.80
2023-01-23T08:08:17.977Z,1.90
2023-01-23T08:13:17.071Z,2.30
2023-01-23T08:18:16.412Z,2.00
2023-01-23T08:23:15.950Z,2.50
2023-01-23T08:28:14.902Z,2.00
2023-01-23T08:33:13.243Z,9.50
2023-01-23T08:38:14.580Z,5.30
2023-01-23T08:43:11.901Z,4.60
2023-01-23T08:48:11.115Z,3.90
2023-01-23T08:53:10.417Z,4.70
2023-01-23T08:58:09.858Z,4.60
2023-01-23T09:03:11.091Z,5.40
2023-01-23T09:08:07.942Z,4.20
2023-01-23T09:13:08.437Z,3.80
2023-01-23T09:18:06.588Z,3.70
2023-01-23T09:23:06.944Z,3.80
2023-01-23T09:28:05.069Z,3.30
2023-01-23T09:33:06.394Z,3.30
2023-01-23T09:38:03.672Z,3.20
2023-01-23T09:43:02.301Z,3.10
2023-01-23T09:48:02.182Z,3.00
2023-01-23T09:53:01.484Z,3.10
2023-01-23T09:58:02.854Z,3.90
2023-01-23T10:02:59.956Z,3.00
2023-01-23T10:07:59.278Z,3.20
2023-01-23T10:12:58.639Z,2.90
2023-01-23T10:18:00.166Z,2.70
2023-01-23T10:22:56.985Z,2.90
2023-01-23T10:27:57.252Z,2.60
2023-01-23T10:32:55.551Z,2.60
2023-01-23T10:37:55.838Z,2.50
2023-01-23T10:42:54.156Z,3.00
2023-01-23T10:47:55.432Z,2.90
2023-01-23T10:52:53.655Z,2.50
2023-01-23T10:57:52.962Z,2.10
2023-01-23T11:02:51.353Z,2.30
2023-01-23T11:07:50.490Z,2.40
2023-01-23T11:12:49.815Z,2.20
2023-01-23T11:17:48.162Z,2.10
2023-01-23T11:22:48.293Z,2.20
2023-01-23T11:27:47.634Z,2.00
2023-01-23T11:32:48.745Z,2.30
2023-01-23T11:37:45.053Z,2.00
2023-01-23T11:42:45.372Z,2.80
2023-01-23T11:47:45.688Z,1.80
2023-01-23T11:52:44.020Z,2.30
2023-01-23T11:57:44.361Z,2.00
2023-01-23T12:02:43.685Z,1.80
2023-01-23T12:07:41.807Z,1.30
2023-01-23T12:12:44.365Z,2.10
2023-01-23T12:17:41.244Z,1.90
2023-01-23T12:22:39.573Z,1.80
2023-01-23T12:27:39.883Z,2.20
2023-01-23T12:32:39.160Z,1.70
2023-01-23T12:37:39.477Z,1.90
2023-01-23T12:42:37.836Z,2.10
2023-01-23T12:47:35.465Z,1.80
2023-01-23T12:52:35.236Z,1.40
2023-01-23T12:57:46.027Z,1.90
2023-01-23T13:02:33.577Z,1.90
2023-01-23T13:07:32.672Z,1.80
2023-01-23T13:12:31.193Z,2.30
2023-01-23T13:17:31.339Z,2.00
2023-01-23T13:22:32.842Z,2.00
2023-01-23T13:27:30.953Z,2.20
2023-01-23T13:32:29.375Z,1.80
2023-01-23T13:37:28.602Z,1.30
2023-01-23T13:42:27.731Z,2.10
2023-01-23T13:47:29.047Z,2.30
2023-01-23T13:52:26.410Z,2.30
2023-01-23T13:57:26.005Z,2.00
2023-01-23T14:02:24.774Z,1.80
2023-01-23T14:07:26.148Z,2.10
2023-01-23T14:12:23.890Z,2.10
2023-01-23T14:17:23.623Z,2.20
2023-01-23T14:22:22.299Z,1.40
2023-01-23T14:27:21.948Z,1.40
2023-01-23T14:32:20.643Z,1.70
2023-01-23T14:37:19.809Z,2.20
2023-01-23T14:42:23.541Z,1.40
2023-01-23T14:47:18.256Z,2.20
2023-01-23T14:52:17.591Z,1.60
2023-01-23T14:57:16.725Z,2.20
2023-01-23T15:02:20.767Z,1.70
2023-01-23T15:07:15.245Z,1.60
2023-01-23T15:12:14.393Z,1.90
2023-01-23T15:17:13.759Z,1.40
2023-01-23T15:22:13.920Z,1.50
2023-01-23T15:27:12.255Z,1.90
2023-01-23T15:32:12.462Z,1.50
2023-01-23T15:37:11.857Z,1.60
2023-01-23T15:42:10.788Z,1.80
2023-01-23T15:47:09.114Z,1.70
2023-01-23T15:52:08.448Z,1.70
2023-01-23T15:57:09.139Z,1.50
2023-01-23T16:02:09.419Z,1.80
2023-01-23T16:07:06.035Z,1.40
2023-01-23T16:12:07.778Z,1.80
2023-01-23T16:17:16.484Z,1.20
2023-01-23T16:22:05.741Z,1.60
2023-01-23T16:27:03.162Z,2.30
2023-01-23T16:32:02.642Z,1.90
2023-01-23T16:37:00.646Z,1.70
2023-01-23T16:42:01.779Z,1.80
2023-01-23T16:47:00.118Z,2.20
2023-01-23T16:52:01.300Z,2.20
2023-01-23T16:56:59.508Z,1.90
2023-01-23T17:01:57.754Z,2.20
2023-01-23T17:06:58.186Z,2.50
2023-01-23T17:12:00.044Z,1.90
2023-01-23T17:16:55.466Z,2.10
2023-01-23T17:21:56.471Z,1.40
2023-01-23T17:26:55.155Z,3.30
2023-01-23T17:31:53.470Z,2.00
2023-01-23T17:36:53.624Z,2.00
2023-01-23T17:41:51.636Z,2.90
2023-01-23T17:46:51.050Z,2.00
2023-01-23T17:51:50.935Z,1.90
2023-01-23T17:56:51.247Z,1.90
2023-01-23T18:01:49.047Z,1.70
2023-01-23T18:06:47.856Z,1.90
2023-01-23T18:11:49.789Z,1.90
2023-01-23T18:16:46.263Z,2.60
2023-01-23T18:21:47.677Z,2.10
2023-01-23T18:26:46.023Z,2.70
2023-01-23T18:31:44.413Z,2.90
2023-01-23T18:36:44.650Z,3.00
2023-01-23T18:41:43.796Z,3.50
2023-01-23T18:46:42.122Z,3.50
2023-01-23T18:51:41.247Z,3.60
2023-01-23T18:56:41.359Z,4.10
2023-01-23T19:01:41.018Z,3.90
2023-01-23T19:06:38.029Z,4.10
2023-01-23T19:11:38.234Z,3.60
2023-01-23T19:16:38.673Z,4.20
2023-01-23T19:21:38.128Z,4.00
2023-01-23T19:26:36.026Z,3.90
2023-01-23T19:31:36.254Z,3.80
2023-01-23T19:36:34.632Z,4.50
2023-01-23T19:41:34.420Z,6.60
2023-01-23T19:46:32.800Z,6.00
2023-01-23T19:51:32.900Z,8.20
2023-01-23T19:56:31.321Z,6.20
2023-01-23T20:01:34.972Z,7.10
2023-01-23T20:06:29.741Z,24.30
2023-01-23T20:11:28.539Z,247.90
2023-01-23T20:16:30.055Z,283.30
2023-01-23T20:21:32.402Z,324.70
2023-01-23T20:26:27.755Z,269.90
2023-01-23T20:31:27.712Z,319.30
2023-01-23T20:36:26.073Z,449.10
2023-01-23T20:41:26.125Z,406.20
2023-01-23T20:46:22.350Z,377.40
2023-01-23T20:51:23.585Z,498.60
2023-01-23T20:56:22.146Z,450.60
2023-01-23T21:01:22.399Z,524.20
2023-01-23T21:06:20.696Z,471.50
2023-01-23T21:11:19.501Z,440.40
2023-01-23T21:16:19.018Z,393.30
2023-01-23T21:21:19.212Z,354.40
2023-01-23T21:26:18.431Z,375.70
2023-01-23T21:31:16.386Z,459.10
2023-01-23T21:36:15.605Z,406.40
2023-01-23T21:41:14.746Z,352.00
2023-01-23T21:46:16.759Z,317.80
2023-01-23T21:51:13.310Z,278.40
2023-01-23T21:56:14.199Z,446.70
2023-01-23T22:01:11.758Z,408.30
2023-01-23T22:06:11.886Z,369.20
2023-01-23T22:11:11.199Z,325.80
2023-01-23T22:16:09.624Z,288.40
2023-01-23T22:21:08.868Z,254.50
2023-01-23T22:26:08.198Z,218.00
2023-01-23T22:31:07.368Z,233.60
2023-01-23T22:36:06.536Z,330.40
2023-01-23T22:41:06.667Z,323.00
2023-01-23T22:46:04.865Z,272.80
2023-01-23T22:51:04.260Z,239.30
2023-01-23T22:56:04.823Z,208.70
2023-01-23T23:01:04.368Z,181.50
2023-01-23T23:06:02.648Z,317.90
2023-01-23T23:11:00.989Z,330.80
2023-01-23T23:16:01.181Z,286.40
2023-01-23T23:21:00.672Z,248.90
2023-01-23T23:25:58.695Z,219.40
2023-01-23T23:30:58.087Z,201.80
2023-01-23T23:35:58.325Z,188.60
2023-01-23T23:40:58.497Z,169.20
2023-01-23T23:45:57.880Z,162.20
2023-01-23T23:50:54.711Z,153.80
2023-01-23T23:55:54.921Z,140.90
